Terminal Aerodrome Forecast
Issued by NWS

Home | Current Version | Previous Version | Text Only | Print | Product List | Glossary On
Versions: 1 2 3 4 5 6 7 8 9 10 11 12 13 14 15 16 17 18 19 20 21 22 23 24 25 26 27 28 29 30 31 32 33 34
000
FTUS41 KOKX 231700
TAFSWF
TAF
KSWF 231720Z 2318/2424 36015G25KT 3SM -SHRA BR BKN020 OVC050
     FM232000 36015G25KT P6SM VCSH BKN025 OVC050
     FM232300 34012KT P6SM BKN030 BKN060
     FM240300 32010KT P6SM BKN040 BKN060
     FM241400 32013G21KT P6SM BKN040
     FM242100 30011KT P6SM SCT040
      AMD NOT SKED=

USA.gov is the U.S. government's official web portal to all federal, state and local government web resources and services.